Time;durP1;ratioP1;P1;durP2;ratioP2;P2;SDS_P1;SDS_P2;PMS_P1;PMS_P2;Temp;Humidity;BMP_temperature;BMP_pressure;BME280_temperature;BME280_humidity;BME280_pressure;Samples;Min_cycle;Max_cycle;Signal;HPM_P1;HPM_P2
2024/03/02 00:00:14;;;;;;;2.80;1.63;;;;;;;4.11;100.00;91619.00;4751474;30;20066;-83
2024/03/02 00:02:47;;;;;;;3.00;1.70;;;;;;;4.16;100.00;91622.31;4758112;30;20044;-83
2024/03/02 00:05:16;;;;;;;4.97;1.85;;;;;;;4.14;100.00;91621.84;4750220;30;20160;-81
2024/03/02 00:07:43;;;;;;;4.45;2.00;;;;;;;4.14;100.00;91628.81;4748666;30;20113;-82
2024/03/02 00:10:11;;;;;;;2.63;1.58;;;;;;;4.14;100.00;91628.81;4759855;30;20255;-83
2024/03/02 00:12:41;;;;;;;3.70;2.08;;;;;;;4.13;100.00;91628.06;4748512;30;20063;-83
2024/03/02 00:15:29;;;;;;;4.63;2.10;;;;;;;4.15;100.00;91617.44;4736135;30;20047;-83
2024/03/02 00:17:55;;;;;;;3.30;1.90;;;;;;;4.16;100.00;91627.50;4748495;30;20036;-82
2024/03/02 00:20:22;;;;;;;3.15;1.60;;;;;;;4.16;100.00;91624.91;4750773;30;20140;-83
2024/03/02 00:22:48;;;;;;;4.05;2.00;;;;;;;4.20;100.00;91625.16;4756771;30;20095;-83
2024/03/02 00:25:14;;;;;;;4.22;2.42;;;;;;;4.21;100.00;91624.16;4750287;30;20044;-83
2024/03/02 00:27:40;;;;;;;2.45;1.55;;;;;;;4.18;100.00;91629.84;4746419;30;20049;-83
2024/03/02 00:31:02;;;;;;;2.67;1.67;;;;;;;4.18;100.00;91622.84;4755747;30;20515;-82
2024/03/02 00:33:31;;;;;;;3.17;1.80;;;;;;;4.18;100.00;91627.25;4730187;30;20049;-82
2024/03/02 00:35:57;;;;;;;2.83;1.70;;;;;;;4.15;100.00;91625.97;4730074;30;20063;-82
2024/03/02 00:38:23;;;;;;;4.53;1.80;;;;;;;4.17;100.00;91623.13;4740501;30;20472;-82
2024/03/02 00:40:48;;;;;;;2.65;1.70;;;;;;;4.13;100.00;91616.94;4750585;30;20698;-83
2024/03/02 00:43:39;;;;;;;2.50;1.40;;;;;;;4.16;100.00;91627.50;4750449;30;20044;-84
2024/03/02 00:46:04;;;;;;;2.47;1.58;;;;;;;4.14;100.00;91615.88;4774810;30;20056;-83
2024/03/02 00:48:31;;;;;;;2.53;1.38;;;;;;;4.15;100.00;91620.03;4750515;30;20032;-83
2024/03/02 00:50:57;;;;;;;4.75;2.28;;;;;;;4.14;100.00;91613.28;4755945;30;20130;-82
2024/03/02 00:53:26;;;;;;;9.48;3.50;;;;;;;4.14;100.00;91613.28;4750716;30;20544;-83
2024/03/02 00:55:52;;;;;;;4.65;2.00;;;;;;;4.11;100.00;91614.59;4746043;30;20044;-82
2024/03/02 00:58:17;;;;;;;2.22;1.40;;;;;;;4.12;100.00;91607.59;4747867;30;20051;-84
2024/03/02 01:00:43;;;;;;;161.13;5.13;;;;;;;4.16;100.00;91618.97;4744327;30;20036;-81
2024/03/02 01:03:10;;;;;;;40.58;2.65;;;;;;;4.06;100.00;91617.22;4749925;30;20083;-82
2024/03/02 01:05:36;;;;;;;17.92;2.20;;;;;;;4.05;100.00;91618.25;4751042;30;20024;-83
2024/03/02 01:08:02;;;;;;;26.73;2.03;;;;;;;4.02;100.00;91616.19;4747384;30;20040;-82
2024/03/02 01:10:28;;;;;;;357.52;8.73;;;;;;;4.03;100.00;91622.16;4750376;30;20070;-83
2024/03/02 01:12:53;;;;;;;2.70;1.80;;;;;;;4.01;100.00;91621.63;4751253;30;20040;-83
2024/03/02 01:15:19;;;;;;;2.53;1.58;;;;;;;4.02;100.00;91623.97;4747184;30;20127;-83
2024/03/02 01:17:45;;;;;;;3.78;2.10;;;;;;;4.03;100.00;91616.97;4744654;30;20048;-83
2024/03/02 01:20:11;;;;;;;3.88;2.08;;;;;;;4.04;100.00;91627.06;4749567;30;20036;-82
2024/03/02 01:22:37;;;;;;;4.32;2.03;;;;;;;4.01;100.00;91611.28;4751231;30;20053;-83
2024/03/02 01:25:03;;;;;;;2.90;1.70;;;;;;;4.07;100.00;91623.16;4749823;30;20052;-82
2024/03/02 01:27:28;;;;;;;2.17;1.50;;;;;;;4.07;100.00;91612.81;4751710;30;20103;-83
2024/03/02 01:29:54;;;;;;;1.58;1.17;;;;;;;4.10;100.00;91612.28;4747565;30;20080;-83
2024/03/02 01:32:20;;;;;;;2.80;1.30;;;;;;;4.11;100.00;91616.41;4749525;30;20059;-83
2024/03/02 01:34:46;;;;;;;1.83;1.30;;;;;;;4.12;100.00;91615.34;4743971;30;20044;-83
2024/03/02 01:37:11;;;;;;;2.17;1.20;;;;;;;4.11;100.00;91609.41;4747213;30;20153;-83
2024/03/02 01:39:37;;;;;;;0.90;0.90;;;;;;;4.10;100.00;91604.53;4747661;30;20060;-82
2024/03/02 01:42:03;;;;;;;2.20;1.23;;;;;;;4.17;100.00;91608.34;4754856;30;20056;-82
2024/03/02 01:44:28;;;;;;;1.58;1.20;;;;;;;4.20;100.00;91612.22;4738977;30;20052;-82
2024/03/02 01:46:54;;;;;;;2.25;1.17;;;;;;;4.21;100.00;91598.25;4759690;30;20044;-82
2024/03/02 01:49:19;;;;;;;1.38;1.17;;;;;;;4.28;100.00;91598.72;4751650;30;20130;-83
2024/03/02 01:51:45;;;;;;;3.70;2.28;;;;;;;4.30;100.00;91601.00;4746650;30;20043;-83
2024/03/02 01:54:11;;;;;;;2.67;1.45;;;;;;;4.29;100.00;91599.47;4752814;30;20052;-83
2024/03/02 01:56:37;;;;;;;1.73;1.30;;;;;;;4.26;100.00;91589.66;4754445;30;20059;-83
2024/03/02 01:59:03;;;;;;;2.00;1.40;;;;;;;4.20;100.00;91604.44;4755300;30;20095;-82
2024/03/02 02:01:28;;;;;;;2.13;1.20;;;;;;;4.25;100.00;91591.47;4756148;30;20044;-81
2024/03/02 02:03:55;;;;;;;3.28;1.30;;;;;;;4.20;100.00;91599.25;4746133;30;20552;-83
2024/03/02 02:06:21;;;;;;;2.00;1.30;;;;;;;4.18;100.00;91598.75;4753114;30;20118;-82
2024/03/02 02:08:47;;;;;;;41.00;2.17;;;;;;;4.32;100.00;91599.72;4747917;30;20268;-82
2024/03/02 02:11:15;;;;;;;162.60;4.93;;;;;;;4.18;100.00;91602.13;4753079;30;20040;-82
2024/03/02 02:13:41;;;;;;;191.52;5.63;;;;;;;4.14;100.00;91600.31;4753022;30;20669;-83
2024/03/02 02:16:07;;;;;;;331.05;8.10;;;;;;;4.09;100.00;91602.94;4753373;30;20032;-83
2024/03/02 02:18:33;;;;;;;267.98;6.57;;;;;;;4.29;100.00;91595.06;4755790;30;20052;-82
2024/03/02 02:20:59;;;;;;;373.30;8.65;;;;;;;4.15;100.00;91604.47;4758984;30;20409;-82
2024/03/02 02:23:25;;;;;;;39.28;2.00;;;;;;;4.07;100.00;91600.63;4748824;30;20200;-83
2024/03/02 02:25:50;;;;;;;7.35;1.23;;;;;;;4.03;100.00;91597.03;4755503;30;20084;-82
2024/03/02 02:28:16;;;;;;;1.90;1.40;;;;;;;4.03;100.00;91591.88;4751406;30;20099;-83
2024/03/02 02:30:42;;;;;;;2.25;1.30;;;;;;;4.04;100.00;91590.03;4754873;30;20028;-83
2024/03/02 02:33:09;;;;;;;1.65;1.25;;;;;;;4.03;100.00;91578.13;4753719;30;20051;-83
2024/03/02 02:35:34;;;;;;;1.58;1.20;;;;;;;4.05;100.00;91584.56;4753581;30;20460;-83
2024/03/02 02:38:02;;;;;;;0.82;0.82;;;;;;;4.05;100.00;91581.97;4759709;30;20051;-83
2024/03/02 02:40:30;;;;;;;83.50;2.85;;;;;;;4.09;100.00;91580.41;4755755;30;20032;-83
2024/03/02 02:42:56;;;;;;;2.17;1.20;;;;;;;4.09;100.00;91579.66;4750086;30;20049;-83
2024/03/02 02:45:22;;;;;;;1.65;1.10;;;;;;;4.09;100.00;91574.47;4751737;30;20119;-83
2024/03/02 02:47:48;;;;;;;1.40;1.15;;;;;;;4.09;100.00;91575.22;4753039;30;20067;-82
2024/03/02 02:50:13;;;;;;;0.95;0.90;;;;;;;4.10;100.00;91568.25;4750634;30;20040;-82
2024/03/02 02:52:41;;;;;;;1.13;1.02;;;;;;;4.11;100.00;91572.38;4753213;30;20129;-85
2024/03/02 02:55:09;;;;;;;1.10;1.00;;;;;;;4.10;100.00;91581.22;4748465;30;20119;-82
2024/03/02 02:57:37;;;;;;;26.38;1.45;;;;;;;4.19;100.00;91569.22;4752547;30;20040;-82
2024/03/02 03:00:13;;;;;;;108.55;3.60;;;;;;;4.13;100.00;91571.06;4748214;30;20078;-83
2024/03/02 03:02:43;;;;;;;10.13;1.40;;;;;;;4.09;100.00;91559.69;4754172;30;20056;-83
2024/03/02 03:05:11;;;;;;;1.15;0.90;;;;;;;4.10;100.00;91563.84;4748719;30;20052;-83
2024/03/02 03:07:39;;;;;;;1.58;1.05;;;;;;;4.09;100.00;91561.50;4753830;30;20075;-82
2024/03/02 03:10:06;;;;;;;1.20;0.80;;;;;;;4.10;100.00;91561.25;4758887;30;20133;-83
2024/03/02 03:12:32;;;;;;;1.52;1.10;;;;;;;4.10;100.00;91561.25;4752956;30;20048;-82
2024/03/02 03:14:58;;;;;;;0.75;0.75;;;;;;;4.11;100.00;91562.78;4747744;30;20047;-83
2024/03/02 03:17:24;;;;;;;1.50;1.00;;;;;;;4.13;100.00;91555.53;4748820;30;20044;-84
2024/03/02 03:19:50;;;;;;;1.10;1.00;;;;;;;4.15;100.00;91552.69;4754225;30;20058;-82
2024/03/02 03:22:16;;;;;;;2.20;1.00;;;;;;;4.14;100.00;91548.53;4754658;30;20055;-82
2024/03/02 03:24:42;;;;;;;0.88;0.80;;;;;;;4.18;100.00;91557.31;4755479;30;20067;-84
2024/03/02 03:27:07;;;;;;;1.20;1.10;;;;;;;4.20;100.00;91562.22;4757174;30;20052;-83
2024/03/02 03:29:33;;;;;;;1.00;1.00;;;;;;;4.17;100.00;91561.72;4759701;30;20358;-83
2024/03/02 03:32:00;;;;;;;3.10;1.42;;;;;;;4.16;100.00;91561.97;4752524;30;20044;-82
2024/03/02 03:34:25;;;;;;;1.60;1.20;;;;;;;4.08;100.00;91557.38;4743055;30;20033;-82
2024/03/02 03:36:51;;;;;;;1.58;1.15;;;;;;;4.13;100.00;91560.72;4735849;30;20047;-82
2024/03/02 03:39:17;;;;;;;2.72;1.45;;;;;;;4.17;100.00;91566.13;4752484;30;20040;-82
2024/03/02 03:41:43;;;;;;;2.08;1.50;;;;;;;4.14;100.00;91561.47;4755381;30;20475;-83
2024/03/02 03:44:09;;;;;;;2.17;1.40;;;;;;;4.15;100.00;91573.41;4748168;30;20148;-82
2024/03/02 03:46:34;;;;;;;2.03;1.25;;;;;;;4.11;100.00;91567.19;4752743;30;20044;-80
2024/03/02 03:49:00;;;;;;;1.63;1.20;;;;;;;4.15;100.00;91571.56;4754135;30;20047;-83
2024/03/02 03:51:26;;;;;;;2.97;1.20;;;;;;;4.16;100.00;91572.34;4735755;30;20055;-82
2024/03/02 03:53:51;;;;;;;1.88;1.20;;;;;;;4.16;100.00;91582.72;4750234;30;20060;-84
2024/03/02 03:56:17;;;;;;;2.05;1.20;;;;;;;4.15;100.00;91571.56;4764500;30;20349;-83
2024/03/02 03:58:42;;;;;;;2.30;1.30;;;;;;;4.19;100.00;91574.41;4751370;30;20098;-83
2024/03/02 04:01:08;;;;;;;1.15;1.00;;;;;;;4.22;100.00;91573.88;4752496;30;20461;-83
2024/03/02 04:03:33;;;;;;;1.27;1.02;;;;;;;4.21;100.00;91581.91;4751996;30;20033;-82
2024/03/02 04:05:59;;;;;;;1.17;0.93;;;;;;;4.20;100.00;91575.94;4758506;30;20140;-83
2024/03/02 04:08:24;;;;;;;1.52;1.10;;;;;;;4.21;100.00;91572.34;4755947;30;20036;-81
2024/03/02 04:10:50;;;;;;;1.50;1.10;;;;;;;4.21;100.00;91582.69;4761444;30;20132;-84
2024/03/02 04:13:15;;;;;;;1.45;1.13;;;;;;;4.21;100.00;91580.09;4750088;30;20046;-82
2024/03/02 04:15:41;;;;;;;1.25;1.10;;;;;;;4.20;100.00;91581.13;4753607;30;20077;-82
2024/03/02 04:18:06;;;;;;;1.45;1.20;;;;;;;4.21;100.00;91585.28;4749932;30;20086;-82
2024/03/02 04:20:32;;;;;;;1.58;1.10;;;;;;;4.21;100.00;91577.50;4750771;30;20052;-82
2024/03/02 04:22:57;;;;;;;1.33;1.20;;;;;;;4.21;100.00;91580.09;4753206;30;20139;-82
2024/03/02 04:25:23;;;;;;;1.17;1.08;;;;;;;4.21;100.00;91582.69;4752117;30;20052;-82
2024/03/02 04:27:49;;;;;;;1.70;1.30;;;;;;;4.20;100.00;91591.50;4750206;30;20048;-83
2024/03/02 04:30:14;;;;;;;1.77;1.30;;;;;;;4.18;100.00;91583.97;4751488;30;20070;-83
2024/03/02 04:32:40;;;;;;;1.77;1.30;;;;;;;4.21;100.00;91585.28;4753584;30;20040;-83
2024/03/02 04:35:08;;;;;;;2.53;1.40;;;;;;;4.22;100.00;91586.81;4758452;30;20054;-82
2024/03/02 04:37:34;;;;;;;1.23;1.00;;;;;;;4.22;100.00;91584.22;4753045;30;20102;-83
2024/03/02 04:40:00;;;;;;;1.05;1.00;;;;;;;4.22;100.00;91588.66;4730654;30;20112;-82
2024/03/02 04:42:25;;;;;;;0.90;0.90;;;;;;;4.10;100.00;91592.34;4739043;30;20036;-83
2024/03/02 04:44:51;;;;;;;0.88;0.85;;;;;;;4.07;100.00;91599.84;4755154;30;20166;-84
2024/03/02 04:47:16;;;;;;;1.10;1.00;;;;;;;4.01;100.00;91596.53;4735642;30;20032;-83
2024/03/02 04:49:42;;;;;;;2.92;1.60;;;;;;;3.98;100.00;91602.22;4752054;30;20084;-83
2024/03/02 04:52:07;;;;;;;1.80;1.25;;;;;;;3.96;100.00;91599.13;4752440;30;20086;-82
2024/03/02 04:55:09;;;;;;;1.40;1.20;;;;;;;4.01;100.00;91595.72;4745211;30;20047;-84
2024/03/02 04:57:18;;;;;;;11.00;1.30;;;;;;;4.18;100.00;91604.69;4749518;30;20043;-83
2024/03/02 04:59:44;;;;;;;2.97;1.00;;;;;;;4.14;100.00;91602.91;4749381;30;20033;-82
2024/03/02 05:02:09;;;;;;;1.33;1.10;;;;;;;4.14;100.00;91608.09;4752955;30;20046;-82
2024/03/02 05:04:35;;;;;;;1.95;1.10;;;;;;;4.16;100.00;91603.44;4752620;30;20063;-83
2024/03/02 05:07:01;;;;;;;1.95;1.40;;;;;;;4.13;100.00;91606.56;4751760;30;20044;-83
2024/03/02 05:09:26;;;;;;;1.20;1.10;;;;;;;4.10;100.00;91602.69;4752446;30;20035;-83
2024/03/02 05:14:38;;;;;;;1.23;1.13;;;;;;;4.11;100.00;91611.22;4750320;30;20041;-83
2024/03/02 05:17:04;;;;;;;10.55;1.45;;;;;;;4.11;100.00;91614.59;4752604;30;20174;-84
2024/03/02 05:19:30;;;;;;;115.63;3.53;;;;;;;4.18;100.00;91614.31;4752788;30;20072;-82
2024/03/02 05:21:55;;;;;;;206.45;4.82;;;;;;;4.06;100.00;91619.03;4756941;30;20051;-83
2024/03/02 05:24:21;;;;;;;16.23;1.50;;;;;;;4.08;100.00;91619.56;4760381;30;20048;-82
2024/03/02 05:26:46;;;;;;;9.55;1.40;;;;;;;4.02;100.00;91616.19;4754806;30;20034;-83
2024/03/02 05:29:12;;;;;;;1.27;1.17;;;;;;;4.02;100.00;91615.44;4740577;30;20056;-84
2024/03/02 05:31:39;;;;;;;22.95;1.83;;;;;;;4.02;100.00;91620.59;4750477;30;20036;-82
2024/03/02 05:34:05;;;;;;;40.55;2.33;;;;;;;4.13;100.00;91632.47;4754987;30;20044;-83
2024/03/02 05:36:31;;;;;;;369.73;7.80;;;;;;;4.27;100.00;91633.41;4754660;30;20502;-83
2024/03/02 05:38:57;;;;;;;68.03;2.67;;;;;;;4.07;100.00;91626.53;4752181;30;20052;-81
2024/03/02 05:41:22;;;;;;;31.70;1.92;;;;;;;4.05;100.00;91630.41;4755009;30;20074;-82
2024/03/02 05:43:49;;;;;;;106.50;3.15;;;;;;;4.02;100.00;91625.78;4753623;30;20046;-83
2024/03/02 05:46:15;;;;;;;1.48;1.23;;;;;;;3.97;100.00;91629.94;4759230;30;20034;-83
2024/03/02 05:48:40;;;;;;;15.95;1.75;;;;;;;3.91;100.00;91625.81;4755397;30;20156;-84
2024/03/02 05:51:06;;;;;;;1.65;1.30;;;;;;;3.95;100.00;91633.84;4755140;30;20061;-84
2024/03/02 05:53:31;;;;;;;5.50;1.30;;;;;;;3.96;100.00;91633.59;4755125;30;20142;-83
2024/03/02 05:55:57;;;;;;;150.55;3.55;;;;;;;3.96;100.00;91631.00;4756621;30;20076;-84
2024/03/02 06:01:07;;;;;;;5.05;1.50;;;;;;;4.13;100.00;91632.47;4751230;30;20044;-83
2024/03/02 06:03:32;;;;;;;1.63;1.30;;;;;;;4.08;100.00;91640.28;4748946;30;20367;-83
2024/03/02 06:05:58;;;;;;;1.45;1.25;;;;;;;4.19;100.00;91646.94;4760115;30;20051;-82
2024/03/02 06:08:23;;;;;;;1.60;1.30;;;;;;;4.15;100.00;91633.75;4756044;30;20040;-81
2024/03/02 06:10:49;;;;;;;1.55;1.25;;;;;;;4.18;100.00;91640.19;4754106;30;20044;-81
2024/03/02 06:13:14;;;;;;;1.20;1.10;;;;;;;4.12;100.00;91646.44;4752255;30;20024;-81
2024/03/02 06:15:40;;;;;;;2.10;1.23;;;;;;;4.09;100.00;91645.16;4754266;30;20040;-84
2024/03/02 06:18:07;;;;;;;63.65;2.75;;;;;;;4.04;100.00;91647.03;4755993;30;20478;-83
2024/03/02 06:20:33;;;;;;;17.98;1.80;;;;;;;4.00;100.00;91649.34;4755242;30;20048;-83
2024/03/02 06:22:59;;;;;;;5.40;1.48;;;;;;;3.99;100.00;91653.00;4750047;30;20133;-84
2024/03/02 06:25:24;;;;;;;1.65;1.35;;;;;;;3.97;100.00;91650.66;4753598;30;20055;-84
2024/03/02 06:27:50;;;;;;;2.17;1.30;;;;;;;3.99;100.00;91657.41;4747977;30;20305;-84
2024/03/02 06:30:15;;;;;;;17.42;1.95;;;;;;;3.96;100.00;91654.31;4746916;30;20101;-82
2024/03/02 06:32:41;;;;;;;1.65;1.20;;;;;;;3.98;100.00;91659.19;4751290;30;20122;-83
2024/03/02 06:35:09;;;;;;;1.40;1.20;;;;;;;4.00;100.00;91664.88;4758728;30;20048;-83
2024/03/02 06:37:39;;;;;;;122.90;3.70;;;;;;;4.14;100.00;91660.69;4759264;30;20408;-82
2024/03/02 06:40:07;;;;;;;375.55;8.57;;;;;;;4.26;100.00;91660.38;4737273;30;20072;-83
2024/03/02 06:42:33;;;;;;;459.08;9.63;;;;;;;4.09;100.00;91662.53;4752977;30;20126;-82
2024/03/02 06:44:59;;;;;;;450.10;10.25;;;;;;;3.96;100.00;91659.47;4765650;30;20110;-82
2024/03/02 06:47:26;;;;;;;69.40;2.50;;;;;;;3.96;100.00;91672.44;4749274;30;20525;-83
2024/03/02 06:49:51;;;;;;;138.80;4.35;;;;;;;3.96;100.00;91675.03;4764834;30;20181;-84
2024/03/02 06:52:17;;;;;;;5.43;1.70;;;;;;;3.95;100.00;91670.09;4763357;30;20143;-82
2024/03/02 06:54:46;;;;;;;4.43;2.53;;;;;;;3.95;100.00;91662.31;4763762;30;20055;-83
2024/03/02 06:57:12;;;;;;;3.50;1.75;;;;;;;4.00;100.00;91677.06;4742290;30;20045;-83
2024/03/02 06:59:37;;;;;;;2.50;1.80;;;;;;;4.01;100.00;91676.81;4758706;30;20028;-82
2024/03/02 07:02:03;;;;;;;6.72;2.40;;;;;;;4.06;100.00;91681.19;4755570;30;20044;-82
2024/03/02 07:04:29;;;;;;;3.78;2.00;;;;;;;4.03;100.00;91671.34;4756383;30;20048;-84
2024/03/02 07:06:55;;;;;;;3.13;1.60;;;;;;;4.10;100.00;91684.81;4756589;30;20028;-83
2024/03/02 07:09:24;;;;;;;1.42;1.25;;;;;;;4.10;100.00;91682.22;4754246;30;20123;-84
2024/03/02 07:11:50;;;;;;;1.10;1.00;;;;;;;4.15;100.00;91687.38;4744264;30;20028;-83
2024/03/02 07:14:15;;;;;;;1.70;1.30;;;;;;;4.15;100.00;91689.97;4749188;30;20102;-84
2024/03/02 07:16:43;;;;;;;0.90;0.90;;;;;;;4.22;100.00;91694.84;4759410;30;20128;-84
2024/03/02 07:19:09;;;;;;;1.27;1.08;;;;;;;4.18;100.00;91686.84;4761540;30;20486;-83
2024/03/02 07:21:34;;;;;;;40.55;1.83;;;;;;;4.20;100.00;91696.94;4755176;30;20032;-81
2024/03/02 07:24:02;;;;;;;15.18;1.40;;;;;;;4.17;100.00;91690.47;4757064;30;20108;-84
2024/03/02 07:26:31;;;;;;;1.70;1.30;;;;;;;4.20;100.00;91709.88;4754364;30;20040;-84
2024/03/02 07:28:57;;;;;;;1.95;1.40;;;;;;;4.21;100.00;91701.88;4768480;30;20044;-84
2024/03/02 07:31:23;;;;;;;246.70;5.63;;;;;;;4.26;100.00;91706.25;4747982;30;20035;-83
2024/03/02 07:33:49;;;;;;;459.85;10.70;;;;;;;4.11;100.00;91704.47;4748953;30;20044;-83
2024/03/02 07:36:15;;;;;;;133.52;3.60;;;;;;;4.11;100.00;91705.25;4756539;30;20033;-85
2024/03/02 07:38:44;;;;;;;6.78;2.28;;;;;;;4.15;100.00;91711.44;4741755;30;20040;-83
2024/03/02 07:41:11;;;;;;;3.65;2.13;;;;;;;4.19;100.00;91701.34;4744542;30;20044;-81
2024/03/02 07:43:37;;;;;;;5.95;4.07;;;;;;;4.22;100.00;91708.59;4745827;30;20472;-86
2024/03/02 07:46:03;;;;;;;5.30;4.00;;;;;;;4.27;100.00;91715.56;4749921;30;20541;-87
2024/03/02 07:48:29;;;;;;;8.90;3.13;;;;;;;4.27;100.00;91705.97;4746522;30;20044;-85
2024/03/02 07:50:54;;;;;;;3.05;1.70;;;;;;;4.33;100.00;91719.69;4729242;30;20047;-84
2024/03/02 07:53:20;;;;;;;1.90;1.27;;;;;;;4.29;100.00;91709.06;4740572;30;20402;-85
2024/03/02 07:55:45;;;;;;;1.20;1.10;;;;;;;4.36;100.00;91719.13;4756676;30;20051;-85
2024/03/02 07:58:11;;;;;;;2.20;1.52;;;;;;;4.42;100.00;91725.84;4740767;30;20533;-85
2024/03/02 08:00:40;;;;;;;2.60;1.67;;;;;;;4.44;100.00;91728.19;4743053;30;20036;-85
2024/03/02 08:03:06;;;;;;;1.48;1.20;;;;;;;4.47;100.00;91725.06;4752331;30;20059;-85
2024/03/02 08:05:31;;;;;;;1.20;1.05;;;;;;;4.46;100.00;91715.72;4748658;30;20132;-83
2024/03/02 08:07:57;;;;;;;1.15;1.00;;;;;;;4.49;100.00;91728.94;4745401;30;20148;-85
2024/03/02 08:10:23;;;;;;;1.50;1.15;;;;;;;4.53;100.00;91724.00;4741315;30;20127;-84
2024/03/02 08:12:50;;;;;;;1.45;1.20;;;;;;;4.54;100.00;91722.94;4748501;30;20044;-85
2024/03/02 08:15:15;;;;;;;1.33;1.00;;;;;;;4.58;100.00;91734.34;4757430;30;20040;-86
2024/03/02 08:17:50;;;;;;;0.90;0.90;;;;;;;4.63;100.00;91734.31;4761956;30;20054;-86
2024/03/02 08:20:17;;;;;;;1.48;1.20;;;;;;;4.70;100.00;91741.78;4755134;30;20051;-87
2024/03/02 08:22:43;;;;;;;1.40;1.17;;;;;;;4.70;100.00;91734.78;4752724;30;20491;-85
2024/03/02 08:25:09;;;;;;;1.50;1.17;;;;;;;4.73;100.00;91739.44;4765982;30;20493;-84
2024/03/02 08:27:35;;;;;;;1.15;1.05;;;;;;;4.74;100.00;91743.56;4761568;30;20028;-80
2024/03/02 08:30:00;;;;;;;2.83;1.30;;;;;;;4.77;100.00;91740.47;4748512;30;20036;-83
2024/03/02 08:32:26;;;;;;;1.83;1.00;;;;;;;4.81;100.00;91745.88;4745692;30;20043;-84
2024/03/02 08:34:51;;;;;;;45.95;2.17;;;;;;;4.83;100.00;91750.78;4743870;30;20078;-86
2024/03/02 08:37:17;;;;;;;150.82;4.25;;;;;;;4.78;100.00;91749.78;4737913;30;20595;-85
2024/03/02 08:39:44;;;;;;;5.30;1.30;;;;;;;4.77;100.00;91740.47;4724959;30;20039;-82
2024/03/02 08:42:09;;;;;;;77.45;2.78;;;;;;;4.78;100.00;91744.59;4739338;30;20039;-85
2024/03/02 08:44:35;;;;;;;136.75;3.53;;;;;;;4.82;100.00;91757.81;4744966;30;20044;-84
2024/03/02 08:47:01;;;;;;;5.93;1.30;;;;;;;4.82;100.00;91754.41;4748097;30;20051;-84
2024/03/02 08:49:26;;;;;;;35.08;2.25;;;;;;;4.84;100.00;91760.91;4746773;30;20048;-85
2024/03/02 08:51:54;;;;;;;25.58;1.95;;;;;;;4.87;100.00;91752.59;4739968;30;20048;-83
2024/03/02 08:54:23;;;;;;;133.75;4.43;;;;;;;4.73;100.00;91754.22;4730144;30;20415;-82
2024/03/02 08:56:50;;;;;;;55.38;2.15;;;;;;;4.70;100.00;91762.53;4738820;30;20044;-79
2024/03/02 08:59:16;;;;;;;20.23;1.73;;;;;;;4.55;100.00;91758.22;4747387;30;20070;-78
2024/03/02 09:01:43;;;;;;;100.40;3.17;;;;;;;4.46;100.00;91765.75;4752049;30;20090;-79
2024/03/02 09:04:09;;;;;;;204.80;4.82;;;;;;;4.29;100.00;91763.47;4743659;30;20089;-85
2024/03/02 09:06:34;;;;;;;28.60;1.80;;;;;;;4.38;100.00;91759.28;4747637;30;20229;-87
2024/03/02 09:09:00;;;;;;;64.70;2.58;;;;;;;4.40;100.00;91766.81;4747380;30;20048;-84
2024/03/02 09:11:26;;;;;;;33.33;1.95;;;;;;;4.37;100.00;91768.13;4736063;30;20731;-81
2024/03/02 09:13:53;;;;;;;180.27;4.60;;;;;;;4.37;100.00;91773.31;4744001;30;20521;-82
2024/03/02 09:16:20;;;;;;;147.80;4.15;;;;;;;4.48;100.00;91770.66;4739274;30;20413;-83
2024/03/02 09:18:45;;;;;;;21.52;1.25;;;;;;;4.59;100.00;91774.75;4762513;30;20063;-81
2024/03/02 09:21:11;;;;;;;3.97;0.88;;;;;;;4.61;100.00;91774.50;4746388;30;20028;-81
2024/03/02 09:23:36;;;;;;;2.53;0.95;;;;;;;4.60;100.00;91776.31;4761120;30;20067;-82
2024/03/02 09:26:03;;;;;;;53.58;2.70;;;;;;;4.68;100.00;91772.38;4744634;30;20051;-81
2024/03/02 09:28:29;;;;;;;28.52;1.75;;;;;;;4.84;100.00;91770.47;4751505;30;20045;-84
2024/03/02 09:30:54;;;;;;;11.82;1.20;;;;;;;4.80;100.00;91771.03;4748760;30;20038;-82
2024/03/02 09:33:20;;;;;;;15.98;1.45;;;;;;;4.61;100.00;91767.50;4754289;30;20135;-84
2024/03/02 09:35:45;;;;;;;96.40;3.70;;;;;;;4.59;100.00;91782.53;4731705;30;20036;-84
2024/03/02 09:38:11;;;;;;;33.15;1.73;;;;;;;4.65;100.00;91786.66;4747065;30;20036;-82
2024/03/02 09:40:37;;;;;;;19.65;1.40;;;;;;;4.53;100.00;91776.59;4741492;30;20028;-84
2024/03/02 09:43:03;;;;;;;31.80;1.90;;;;;;;4.55;100.00;91781.53;4744059;30;20059;-83
2024/03/02 09:45:30;;;;;;;1.42;1.05;;;;;;;4.50;100.00;91766.78;4746824;30;20112;-83
2024/03/02 09:47:56;;;;;;;2.22;1.35;;;;;;;4.54;100.00;91779.97;4736090;30;20259;-83
2024/03/02 09:50:22;;;;;;;4.63;1.33;;;;;;;4.61;100.00;91777.09;4730831;30;20041;-83
2024/03/02 09:52:49;;;;;;;1.85;1.00;;;;;;;4.64;100.00;91772.16;4746361;30;20052;-82
2024/03/02 09:55:17;;;;;;;15.43;1.30;;;;;;;4.73;100.00;91770.56;4745130;30;20048;-83
2024/03/02 09:57:42;;;;;;;0.88;0.70;;;;;;;4.93;100.00;91777.47;4744851;30;20052;-83
2024/03/02 10:00:14;;;;;;;17.80;2.20;;;;;;;4.79;100.00;91763.50;4738601;30;20405;-84
2024/03/02 10:02:41;;;;;;;62.45;3.75;;;;;;;4.76;100.00;91775.19;4760604;30;20036;-82
2024/03/02 10:05:08;;;;;;;40.13;2.08;;;;;;;4.79;100.00;91772.06;4738739;30;20488;-83
2024/03/02 10:07:34;;;;;;;206.43;5.70;;;;;;;4.64;100.00;91785.13;4742935;30;20041;-84
2024/03/02 10:10:13;;;;;;;308.95;6.53;;;;;;;4.63;100.00;91780.19;4745619;30;20032;-83
2024/03/02 10:12:39;;;;;;;126.88;3.70;;;;;;;4.57;100.00;91776.84;4741070;30;20036;-83
2024/03/02 10:15:06;;;;;;;108.60;3.00;;;;;;;4.65;100.00;91773.69;4756917;30;20080;-80
2024/03/02 10:17:31;;;;;;;202.73;5.20;;;;;;;4.61;100.00;91777.09;4746386;30;20486;-83
2024/03/02 10:19:57;;;;;;;135.05;4.20;;;;;;;4.65;100.00;91784.06;4746018;30;20043;-84
2024/03/02 10:22:23;;;;;;;156.25;3.78;;;;;;;4.69;100.00;91782.50;4740794;30;20055;-82
2024/03/02 10:24:50;;;;;;;129.48;4.10;;;;;;;4.74;100.00;91782.47;4749377;30;20096;-82
2024/03/02 10:27:22;;;;;;;2.13;1.50;;;;;;;4.81;100.00;91784.75;4743732;30;20040;-83
2024/03/02 10:29:48;;;;;;;5.15;1.80;;;;;;;4.90;100.00;91784.97;4747395;30;20538;-84
2024/03/02 10:32:14;;;;;;;2.50;1.60;;;;;;;4.93;100.00;91785.22;4744840;30;20044;-84
2024/03/02 10:34:41;;;;;;;2.08;1.40;;;;;;;5.02;100.00;91785.41;4745244;30;20580;-84
2024/03/02 10:37:07;;;;;;;2.58;1.48;;;;;;;5.07;100.00;91784.63;4743482;30;20106;-84
2024/03/02 10:39:39;;;;;;;2.22;1.50;;;;;;;5.17;100.00;91782.75;4738761;30;20067;-83
2024/03/02 10:42:06;;;;;;;3.33;1.85;;;;;;;5.26;100.00;91784.78;4743924;30;20048;-83
2024/03/02 10:44:35;;;;;;;147.52;4.00;;;;;;;5.29;100.00;91781.63;4745069;30;20051;-83
2024/03/02 10:47:05;;;;;;;479.85;12.07;;;;;;;5.19;100.00;91783.25;4746380;30;20049;-83
2024/03/02 10:49:32;;;;;;;843.03;18.00;;;;;;;5.04;100.00;91788.53;4736860;30;20138;-84
2024/03/02 10:52:01;;;;;;;409.25;10.23;;;;;;;5.02;100.00;91782.81;4744006;30;20056;-84
2024/03/02 10:54:29;;;;;;;94.90;3.60;;;;;;;5.09;100.00;91793.69;4751241;30;20056;-85
2024/03/02 10:57:00;;;;;;;221.88;5.93;;;;;;;5.16;100.00;91780.44;4754536;30;20040;-85
2024/03/02 10:59:32;;;;;;;115.65;4.30;;;;;;;5.25;100.00;91791.78;4752460;30;20044;-83
2024/03/02 11:01:59;;;;;;;10.40;3.95;;;;;;;5.30;100.00;91778.00;4738788;30;20055;-86
2024/03/02 11:04:30;;;;;;;87.22;4.63;;;;;;;5.39;100.00;91784.16;4745816;30;20378;-83
2024/03/02 11:07:06;;;;;;;5.13;3.17;;;;;;;5.46;100.00;91776.06;4746730;30;20055;-82
2024/03/02 11:09:35;;;;;;;3.40;2.00;;;;;;;5.55;100.00;91783.00;4739117;30;20078;-84
2024/03/02 11:12:12;;;;;;;2.00;1.40;;;;;;;5.49;100.00;91780.69;4736619;30;20060;-84
2024/03/02 11:14:44;;;;;;;3.67;1.80;;;;;;;5.49;100.00;91773.69;4739171;30;20036;-83
2024/03/02 11:17:13;;;;;;;2.90;1.60;;;;;;;5.56;100.00;91781.16;4742042;30;20047;-84
2024/03/02 11:19:40;;;;;;;5.57;2.13;;;;;;;5.59;100.00;91776.22;4738208;30;20067;-83
2024/03/02 11:22:07;;;;;;;9.63;5.60;;;;;;;5.61;100.00;91778.53;4731089;30;20111;-83
2024/03/02 11:24:33;;;;;;;5.63;2.90;;;;;;;5.63;100.00;91779.06;4747891;30;20050;-84
2024/03/02 11:27:00;;;;;;;5.10;2.50;;;;;;;5.68;100.00;91770.44;4742144;30;20047;-84
2024/03/02 11:29:40;;;;;;;5.20;2.20;;;;;;;5.69;100.00;91770.16;4742899;30;20036;-82
2024/03/02 11:32:14;;;;;;;16.45;1.90;;;;;;;5.69;100.00;91766.78;4732509;30;20509;-84